ADDS METAR Data INFO
IDs: Format: Raw Decoded Include TAF

Data at: 1624 UTC 25 Apr 2018

KF44 251615Z AUTO 34005KT 10SM OVC060 23/13 A3005 RMK AO2
KF44 251555Z AUTO 00000KT 10SM BKN060 24/13 A3005 RMK AO2
KF44 251535Z AUTO 24004KT 10SM SCT060 BKN075 23/12 A3005 RMK AO2
KF44 251515Z AUTO 22004KT 10SM BKN060 OVC075 23/13 A3006 RMK AO2
KF44 251455Z AUTO 22004KT 10SM BKN060 22/13 A3006 RMK AO2
KF44 251435Z AUTO 20003KT 10SM SCT060 22/13 A3006 RMK AO2
KF44 251415Z AUTO 00000KT 10SM SCT075 21/12 A3006 RMK AO2
KF44 251355Z AUTO 00000KT 10SM SCT060 BKN075 BKN085 19/12 A3005 RMK AO2
KF44 251335Z AUTO 00000KT 10SM SCT060 BKN075 BKN085 19/12 A3006 RMK AO2
KF44 251315Z AUTO 00000KT 10SM SCT060 SCT085 18/13 A3006 RMK AO2
KF44 251255Z AUTO 00000KT 10SM SCT070 BKN085 17/13 A3005 RMK AO2
KF44 251235Z AUTO 00000KT 10SM BKN070 BKN085 15/13 A3005 RMK AO2
KF44 251215Z AUTO 00000KT 10SM SCT070 SCT085 15/13 A3004 RMK AO2
KF44 251155Z AUTO 00000KT 10SM SCT070 SCT085 15/13 A3004 RMK AO2
KF44 251135Z AUTO 00000KT 10SM OVC070 15/13 A3004 RMK AO2
KF44 251115Z AUTO 00000KT 10SM OVC080 15/12 A3004 RMK AO2
KF44 251055Z AUTO 00000KT 10SM OVC080 16/13 A3004 RMK AO2
KF44 251035Z AUTO 00000KT 10SM OVC080 15/12 A3004 RMK AO2
KF44 251015Z AUTO 00000KT 10SM SCT080 15/11 A3004 RMK AO2
KF44 250955Z AUTO 00000KT 10SM CLR 16/11 A3003 RMK AO2 LTG DSNT N
KF44 250935Z AUTO 01005KT 10SM CLR 15/12 A3001 RMK AO2
KF44 250915Z AUTO 00000KT 10SM CLR 15/12 A3001 RMK AO2
KF44 250855Z AUTO 18003KT 10SM CLR 14/12 A3000 RMK AO2
KF44 250835Z AUTO 15003KT 10SM SCT085 15/13 A3002 RMK AO2
KF44 250815Z AUTO 00000KT 10SM BKN085 15/13 A3005 RMK AO2
KF44 250755Z AUTO 00000KT 10SM OVC085 15/13 A3006 RMK AO2
KF44 250735Z AUTO 00000KT 10SM BKN085 15/13 A3006 RMK AO2
KF44 250715Z AUTO 00000KT 10SM SCT085 14/13 A3005 RMK AO2
KF44 250655Z AUTO 00000KT 10SM CLR 15/12 A3006 RMK AO2
KF44 250635Z AUTO 00000KT 10SM CLR 14/12 A3007 RMK AO2 LTG DSNT W
KF44 250615Z AUTO 00000KT 10SM CLR 14/12 A3007 RMK AO2 LTG DSNT NW
KF44 250555Z AUTO 00000KT 10SM CLR 14/12 A3007 RMK AO2
KF44 250535Z AUTO 00000KT 10SM CLR 15/12 A3007 RMK AO2
KF44 250455Z AUTO 00000KT 10SM CLR 15/11 A3007 RMK AO2
KF44 250435Z AUTO 00000KT 10SM CLR 15/11 A3007 RMK AO2
KF44 250415Z AUTO 00000KT 10SM CLR 16/12 A3006 RMK AO2
KF44 250355Z AUTO 00000KT 10SM CLR 16/12 A3005 RMK AO2
KF44 250335Z AUTO 00000KT 10SM CLR 16/11 A3005 RMK AO2
KF44 250315Z AUTO 00000KT 10SM CLR 16/12 A3004 RMK AO2
KF44 250255Z AUTO 00000KT 10SM CLR 17/11 A3003 RMK AO2
KF44 250235Z AUTO 00000KT 10SM CLR 17/12 A3002 RMK AO2
KF44 250215Z AUTO 00000KT 10SM CLR 17/12 A3002 RMK AO2
KF44 250155Z AUTO 00000KT 10SM CLR 20/12 A3001 RMK AO2
KF44 250135Z AUTO 01003KT 10SM CLR 20/13 A3001 RMK AO2
KF44 250115Z AUTO 00000KT 10SM CLR 20/12 A3000 RMK AO2
KF44 250055Z AUTO 00000KT 10SM CLR 22/12 A3000 RMK AO2
KF44 250035Z AUTO 00000KT 10SM CLR 24/11 A2999 RMK AO2
KF44 250015Z AUTO 36003KT 10SM CLR 26/09 A3000 RMK AO2
KF44 242355Z AUTO 35004KT 10SM CLR 26/10 A3000 RMK AO2
KF44 242335Z AUTO 36003KT 10SM CLR 26/08 A3000 RMK AO2
KF44 242315Z AUTO 00000KT 10SM CLR 26/09 A3000 RMK AO2
KF44 242255Z AUTO 01005KT 10SM CLR 27/08 A3000 RMK AO2
KF44 242235Z AUTO 00000KT 10SM CLR 27/09 A3000 RMK AO2
KF44 242215Z AUTO 03005KT 10SM CLR 27/08 A3000 RMK AO2
KF44 242155Z AUTO 34003KT 10SM CLR 27/08 A3000 RMK AO2
KF44 242135Z AUTO 00000KT 10SM CLR 27/09 A3000 RMK AO2
KF44 242115Z AUTO 03005KT 10SM CLR 27/10 A3001 RMK AO2
KF44 242055Z AUTO 36005KT 10SM CLR 27/09 A3002 RMK AO2
KF44 242035Z AUTO 05003KT 10SM CLR 26/09 A3003 RMK AO2
KF44 242015Z AUTO 35006KT 10SM CLR 26/09 A3003 RMK AO2
KF44 241955Z AUTO 34003KT 10SM CLR 26/09 A3004 RMK AO2
KF44 241935Z AUTO 01005KT 10SM CLR 26/09 A3004 RMK AO2
KF44 241915Z AUTO 00000KT 10SM CLR 26/10 A3004 RMK AO2
KF44 241855Z AUTO 35003KT 10SM CLR 26/10 A3005 RMK AO2
KF44 241835Z AUTO 01005KT 10SM CLR 25/09 A3006 RMK AO2
KF44 241815Z AUTO 04004KT 10SM CLR 25/10 A3007 RMK AO2
KF44 241755Z AUTO 36005KT 10SM CLR 25/10 A3008 RMK AO2
KF44 241735Z AUTO 36004KT 10SM CLR 24/09 A3009 RMK AO2
KF44 241715Z AUTO 02007KT 10SM CLR 24/10 A3009 RMK AO2
KF44 241655Z AUTO 35005KT 10SM CLR 23/10 A3010 RMK AO2
KF44 241635Z AUTO 00000KT 10SM CLR 23/10 A3011 RMK AO2
KF44 241615Z AUTO 02004KT 10SM CLR 23/10 A3012 RMK AO2
KF44 241555Z AUTO 01006KT 10SM CLR 22/11 A3012 RMK AO2
KF44 241535Z AUTO 36006KT 10SM CLR 22/12 A3011 RMK AO2
KF44 241515Z AUTO 34006KT 10SM CLR 22/12 A3011 RMK AO2
KF44 241455Z AUTO 34004KT 10SM CLR 21/13 A3011 RMK AO2
KF44 241435Z AUTO 34006KT 10SM CLR 20/13 A3010 RMK AO2
KF44 241415Z AUTO 00000KT 10SM CLR 19/13 A3010 RMK AO2
KF44 241355Z AUTO 00000KT 10SM CLR 17/12 A3009 RMK AO2
KF44 241335Z AUTO 00000KT 10SM CLR 16/13 A3010 RMK AO2
KF44 241315Z AUTO 00000KT 10SM CLR 16/13 A3009 RMK AO2
KF44 241255Z AUTO 00000KT 10SM CLR 12/12 A3008 RMK AO2
KF44 241235Z AUTO 00000KT 10SM CLR 11/10 A3008 RMK AO2
KF44 241215Z AUTO 00000KT 10SM CLR 10/09 A3007 RMK AO2
KF44 241155Z AUTO 00000KT 10SM CLR 10/09 A3007 RMK AO2
KF44 241135Z AUTO 00000KT 10SM CLR 10/09 A3006 RMK AO2
KF44 241115Z AUTO 00000KT 10SM CLR 10/09 A3005 RMK AO2
KF44 241055Z AUTO 00000KT 10SM CLR 10/09 A3005 RMK AO2
KF44 241035Z AUTO 00000KT 10SM CLR 11/11 A3004 RMK AO2
KF44 241015Z AUTO 00000KT 10SM CLR 10/10 A3004 RMK AO2
KF44 240955Z AUTO 00000KT 10SM CLR 10/10 A3003 RMK AO2
KF44 240935Z AUTO 00000KT 10SM CLR 10/10 A3002 RMK AO2
KF44 240915Z AUTO 00000KT 10SM CLR 10/10 A3002 RMK AO2
KF44 240855Z AUTO 00000KT 10SM CLR 10/10 A3002 RMK AO2
KF44 240835Z AUTO 00000KT 10SM CLR 10/10 A3001 RMK AO2
KF44 240815Z AUTO 00000KT 10SM CLR 10/10 A3001 RMK AO2
KF44 240755Z AUTO 00000KT 10SM CLR 10/10 A3001 RMK AO2
KF44 240735Z AUTO 00000KT 10SM CLR 10/10 A3002 RMK AO2
KF44 240715Z AUTO 00000KT 10SM CLR 10/10 A3002 RMK AO2
KF44 240655Z AUTO 00000KT 10SM CLR 11/11 A3003 RMK AO2
KF44 240635Z AUTO 00000KT 10SM CLR 11/11 A3003 RMK AO2
KF44 240615Z AUTO 00000KT 10SM CLR 11/11 A3004 RMK AO2
KF44 240555Z AUTO 00000KT 10SM CLR 11/11 A3004 RMK AO2
KF44 240535Z AUTO 00000KT 10SM CLR 11/11 A3004 RMK AO2
KF44 240515Z AUTO 00000KT 10SM CLR 11/11 A3004 RMK AO2
KF44 240455Z AUTO 00000KT 10SM CLR 12/11 A3004 RMK AO2
KF44 240435Z AUTO 00000KT 10SM CLR 11/11 A3004 RMK AO2